Time;durP1;ratioP1;P1;durP2;ratioP2;P2;SDS_P1;SDS_P2;PMS_P1;PMS_P2;Temp;Humidity;BMP_temperature;BMP_pressure;BME280_temperature;BME280_humidity;BME280_pressure;Samples;Min_cycle;Max_cycle;Signal;HPM_P1;HPM_P2
2021/11/21 00:01:22;;;;;;;16.75;2.38;;;6.60;88.40;;;;;;4805999;29;20540;-72
2021/11/21 00:03:50;;;;;;;19.13;2.05;;;6.60;88.40;;;;;;4821381;29;20054;-72
2021/11/21 00:06:20;;;;;;;26.65;2.63;;;6.50;88.40;;;;;;4823292;29;20055;-72
2021/11/21 00:08:49;;;;;;;16.70;2.10;;;6.50;88.40;;;;;;4810249;29;20210;-72
2021/11/21 00:11:17;;;;;;;13.75;2.00;;;6.40;88.50;;;;;;4823979;29;20493;-71
2021/11/21 00:13:48;;;;;;;15.35;2.10;;;6.30;88.60;;;;;;4817655;29;20171;-72
2021/11/21 00:16:16;;;;;;;20.50;2.30;;;6.30;88.80;;;;;;4823497;29;20039;-72
2021/11/21 00:18:44;;;;;;;11.65;1.98;;;6.30;88.90;;;;;;4823182;29;20058;-72
2021/11/21 00:21:12;;;;;;;11.68;1.60;;;6.30;88.90;;;;;;4823769;29;20057;-72
2021/11/21 00:23:40;;;;;;;21.10;2.35;;;6.30;88.80;;;;;;4823484;29;20051;-72
2021/11/21 00:26:08;;;;;;;14.70;1.80;;;6.30;88.70;;;;;;4823257;29;20416;-73
2021/11/21 00:28:36;;;;;;;19.48;1.85;;;6.30;88.50;;;;;;4807227;29;20055;-72
2021/11/21 00:31:03;;;;;;;19.83;1.80;;;6.30;88.40;;;;;;4823793;29;20047;-72
2021/11/21 00:33:32;;;;;;;14.98;1.80;;;6.30;88.30;;;;;;4823028;29;20046;-72
2021/11/21 00:36:00;;;;;;;10.30;1.67;;;6.30;88.20;;;;;;4823783;29;20050;-72
2021/11/21 00:38:27;;;;;;;13.23;1.88;;;6.20;88.20;;;;;;4823202;29;20058;-74
2021/11/21 00:40:57;;;;;;;9.75;1.40;;;6.20;88.20;;;;;;4823583;29;20050;-72
2021/11/21 00:43:25;;;;;;;10.77;1.20;;;6.20;88.20;;;;;;4819035;29;20073;-73
2021/11/21 00:45:53;;;;;;;10.60;1.45;;;6.10;88.20;;;;;;4823397;29;20058;-73
2021/11/21 00:48:25;;;;;;;11.35;1.38;;;6.10;88.20;;;;;;4827640;29;20077;-72
2021/11/21 00:50:57;;;;;;;13.30;1.20;;;6.00;88.10;;;;;;4841464;29;20049;-72
2021/11/21 00:53:26;;;;;;;10.18;1.40;;;6.10;88.00;;;;;;4831145;29;20062;-72
2021/11/21 00:56:01;;;;;;;13.68;1.50;;;6.00;87.60;;;;;;4823454;29;20054;-71
2021/11/21 00:58:32;;;;;;;10.52;1.10;;;6.00;87.50;;;;;;4823224;29;20059;-72
2021/11/21 01:01:01;;;;;;;8.50;1.30;;;6.00;87.30;;;;;;4823307;29;20042;-71
2021/11/21 01:03:29;;;;;;;7.93;1.13;;;6.00;87.20;;;;;;4820807;29;20069;-72
2021/11/21 01:05:58;;;;;;;10.82;1.23;;;6.00;87.10;;;;;;4819998;29;20512;-72
2021/11/21 01:08:27;;;;;;;14.10;1.40;;;5.90;87.10;;;;;;4818897;29;20413;-73
2021/11/21 01:10:59;;;;;;;6.82;1.10;;;5.90;87.00;;;;;;4803302;29;20378;-73
2021/11/21 01:13:28;;;;;;;16.90;1.52;;;5.90;86.90;;;;;;4812234;29;20449;-73
2021/11/21 01:15:56;;;;;;;10.82;1.30;;;5.80;86.80;;;;;;4820073;29;20058;-73
2021/11/21 01:18:24;;;;;;;5.93;1.15;;;5.80;86.80;;;;;;4820864;29;20061;-73
2021/11/21 01:20:52;;;;;;;9.32;1.40;;;5.80;86.80;;;;;;4821083;29;20058;-73
2021/11/21 01:23:20;;;;;;;10.57;1.00;;;5.80;86.90;;;;;;4820255;29;20077;-73
2021/11/21 01:25:48;;;;;;;11.85;1.40;;;5.70;87.00;;;;;;4820548;29;20065;-73
2021/11/21 01:28:16;;;;;;;11.55;1.05;;;5.60;87.00;;;;;;4821978;29;20050;-73
2021/11/21 01:30:44;;;;;;;11.77;1.67;;;5.50;87.10;;;;;;4823090;29;20054;-73
2021/11/21 01:33:13;;;;;;;11.10;1.48;;;5.50;87.20;;;;;;4822592;29;20051;-72
2021/11/21 01:35:40;;;;;;;15.48;1.55;;;5.30;87.30;;;;;;4823069;29;20051;-72
2021/11/21 01:38:09;;;;;;;7.30;1.20;;;5.30;87.40;;;;;;4823073;29;20498;-72
2021/11/21 01:40:37;;;;;;;8.32;1.10;;;5.20;87.50;;;;;;4822278;29;20153;-72
2021/11/21 01:43:06;;;;;;;5.80;1.13;;;5.10;87.60;;;;;;4821457;29;20055;-72
2021/11/21 01:45:34;;;;;;;11.05;1.45;;;5.00;87.80;;;;;;4819231;29;20050;-72
2021/11/21 01:48:02;;;;;;;6.88;0.93;;;4.90;87.90;;;;;;4804840;29;20059;-72
2021/11/21 01:50:40;;;;;;;9.48;1.20;;;4.90;87.90;;;;;;4803994;29;20059;-72
2021/11/21 01:53:09;;;;;;;8.52;1.20;;;4.80;87.90;;;;;;4791204;29;20050;-72
2021/11/21 01:55:39;;;;;;;7.18;0.95;;;4.80;88.10;;;;;;4822633;29;20054;-72
2021/11/21 01:58:08;;;;;;;13.43;1.20;;;4.70;88.20;;;;;;4806600;29;20050;-72
2021/11/21 02:00:40;;;;;;;8.20;0.82;;;4.70;88.30;;;;;;4822624;29;20073;-72
2021/11/21 02:03:09;;;;;;;;;;;4.60;88.40;;;;;;4822637;29;20074;-72
2021/11/21 02:05:37;;;;;;;8.75;1.13;;;4.60;88.40;;;;;;4822785;29;19924;-73
2021/11/21 02:08:05;;;;;;;10.50;1.42;;;4.60;88.30;;;;;;4806587;29;20050;-73
2021/11/21 02:10:35;;;;;;;10.15;1.40;;;4.50;88.30;;;;;;4822726;29;20405;-73
2021/11/21 02:13:05;;;;;;;8.32;1.25;;;4.50;88.30;;;;;;4806115;29;20047;-73
2021/11/21 02:15:35;;;;;;;13.05;1.20;;;4.40;88.40;;;;;;4807711;29;20054;-73
2021/11/21 02:18:04;;;;;;;12.98;1.55;;;4.30;88.50;;;;;;4825457;29;20066;-73
2021/11/21 02:20:35;;;;;;;13.27;1.30;;;4.20;88.70;;;;;;4825445;29;20070;-73
2021/11/21 02:23:05;;;;;;;14.27;2.05;;;4.00;89.00;;;;;;4823599;29;20062;-73
2021/11/21 02:25:34;;;;;;;10.80;1.27;;;4.00;89.40;;;;;;4825551;29;20049;-73
2021/11/21 02:28:03;;;;;;;10.07;1.55;;;4.00;89.50;;;;;;4825326;29;20062;-73
2021/11/21 02:30:31;;;;;;;9.88;1.30;;;4.00;89.50;;;;;;4825561;29;20213;-72
2021/11/21 02:32:58;;;;;;;17.70;1.60;;;4.00;89.70;;;;;;4825228;29;20043;-71
2021/11/21 02:35:26;;;;;;;11.10;1.25;;;4.10;89.80;;;;;;4825591;29;20054;-72
2021/11/21 02:37:54;;;;;;;15.18;1.80;;;4.10;89.70;;;;;;4825892;29;20058;-72
2021/11/21 02:40:22;;;;;;;7.63;1.27;;;4.10;89.90;;;;;;4824359;29;20413;-72
2021/11/21 02:42:49;;;;;;;15.82;1.33;;;4.20;89.70;;;;;;4825515;29;20050;-72
2021/11/21 02:45:18;;;;;;;11.82;1.20;;;4.10;89.70;;;;;;4809309;29;20058;-72
2021/11/21 02:47:46;;;;;;;12.68;1.40;;;4.10;89.80;;;;;;4810059;29;20050;-72
2021/11/21 02:50:20;;;;;;;10.95;1.05;;;4.10;89.80;;;;;;4775873;29;20075;-72
2021/11/21 02:52:49;;;;;;;8.15;1.10;;;4.20;90.00;;;;;;4789087;30;20047;-71
2021/11/21 02:55:18;;;;;;;10.35;1.08;;;4.30;89.90;;;;;;4788542;30;20070;-71
2021/11/21 02:57:46;;;;;;;12.15;1.02;;;4.30;89.80;;;;;;4789082;30;20050;-71
2021/11/21 03:00:16;;;;;;;8.20;1.08;;;4.30;89.70;;;;;;4806519;29;20414;-71
2021/11/21 03:02:45;;;;;;;11.75;1.15;;;4.40;89.60;;;;;;4804122;29;20061;-72
2021/11/21 03:05:15;;;;;;;10.75;1.42;;;4.50;89.50;;;;;;4799014;29;20055;-71
2021/11/21 03:07:42;;;;;;;10.95;1.60;;;4.40;89.50;;;;;;4772827;30;20051;-71
2021/11/21 03:10:14;;;;;;;12.43;1.08;;;4.50;89.50;;;;;;4805876;29;20062;-72
2021/11/21 03:12:42;;;;;;;12.82;1.52;;;4.40;89.40;;;;;;4806736;29;20051;-71
2021/11/21 03:15:10;;;;;;;11.90;1.67;;;4.40;89.40;;;;;;4789710;29;20062;-71
2021/11/21 03:17:39;;;;;;;11.95;1.35;;;4.40;89.40;;;;;;4801987;29;20058;-71
2021/11/21 03:20:07;;;;;;;11.10;1.90;;;4.30;89.40;;;;;;4805996;29;20236;-71
2021/11/21 03:22:36;;;;;;;9.68;1.27;;;4.30;89.50;;;;;;4806090;29;20051;-71
2021/11/21 03:25:05;;;;;;;9.70;1.23;;;4.30;89.60;;;;;;4805409;29;20061;-71
2021/11/21 03:27:32;;;;;;;6.97;1.13;;;4.20;89.60;;;;;;4805397;29;20042;-72
2021/11/21 03:30:00;;;;;;;7.80;1.33;;;4.20;89.60;;;;;;4804164;29;20059;-72
2021/11/21 03:32:28;;;;;;;7.57;1.30;;;4.10;89.80;;;;;;4789607;29;20062;-72
2021/11/21 03:34:55;;;;;;;11.07;1.38;;;4.10;89.90;;;;;;4805761;29;20172;-72
2021/11/21 03:37:23;;;;;;;10.65;1.27;;;4.20;89.80;;;;;;4805196;29;20050;-72
2021/11/21 03:39:51;;;;;;;13.68;1.80;;;4.10;89.70;;;;;;4805420;29;20059;-72
2021/11/21 03:42:18;;;;;;;9.05;1.38;;;4.10;89.80;;;;;;4806182;29;20063;-72
2021/11/21 03:44:47;;;;;;;12.90;1.85;;;4.10;89.70;;;;;;4805832;29;20043;-72
2021/11/21 03:47:15;;;;;;;6.93;0.90;;;4.10;89.70;;;;;;4816420;29;20518;-72
2021/11/21 03:49:43;;;;;;;12.18;1.52;;;4.10;89.70;;;;;;4824429;29;20057;-72
2021/11/21 03:52:11;;;;;;;8.07;1.00;;;4.10;89.70;;;;;;4804383;29;20058;-73
2021/11/21 03:54:39;;;;;;;14.13;1.30;;;4.20;89.60;;;;;;4823039;29;20054;-72
2021/11/21 03:57:08;;;;;;;9.65;1.15;;;4.20;89.40;;;;;;4813051;29;20489;-72
2021/11/21 03:59:36;;;;;;;11.70;1.25;;;4.20;89.40;;;;;;4823638;29;20146;-72
2021/11/21 04:02:03;;;;;;;15.20;1.55;;;4.30;89.20;;;;;;4823471;29;20405;-72
2021/11/21 04:04:33;;;;;;;9.75;1.23;;;4.30;89.20;;;;;;4824029;29;20062;-72
2021/11/21 04:07:00;;;;;;;9.93;1.25;;;4.30;89.10;;;;;;4823838;29;20482;-72
2021/11/21 04:09:28;;;;;;;11.93;1.27;;;4.30;88.90;;;;;;4833840;29;20074;-72
2021/11/21 04:11:55;;;;;;;5.63;0.93;;;4.30;88.90;;;;;;4823841;29;20050;-72
2021/11/21 04:14:23;;;;;;;9.27;1.15;;;4.20;88.90;;;;;;4823877;29;20058;-72
2021/11/21 04:16:51;;;;;;;12.70;1.45;;;4.20;88.90;;;;;;4823702;29;20065;-72
2021/11/21 04:19:18;;;;;;;10.57;1.27;;;4.20;88.90;;;;;;4823680;29;20042;-72
2021/11/21 04:21:46;;;;;;;11.95;1.58;;;4.20;88.90;;;;;;4822945;29;20066;-72
2021/11/21 04:24:14;;;;;;;10.77;1.45;;;4.20;88.80;;;;;;4823679;29;20512;-72
2021/11/21 04:26:43;;;;;;;9.30;1.02;;;4.20;88.90;;;;;;4822635;29;20469;-72
2021/11/21 04:29:12;;;;;;;9.93;1.45;;;4.20;88.90;;;;;;4826102;29;20444;-72
2021/11/21 04:31:40;;;;;;;12.73;1.10;;;4.10;88.90;;;;;;4823439;29;20409;-72
2021/11/21 04:34:07;;;;;;;12.32;1.40;;;4.20;88.90;;;;;;4823717;29;20050;-72
2021/11/21 04:36:35;;;;;;;10.45;1.25;;;4.20;88.90;;;;;;4823590;29;20054;-72
2021/11/21 04:39:04;;;;;;;9.07;1.45;;;4.10;88.90;;;;;;4822877;29;20047;-72
2021/11/21 04:41:33;;;;;;;9.93;1.05;;;4.20;89.00;;;;;;4823446;29;20050;-72
2021/11/21 04:44:02;;;;;;;10.48;1.45;;;4.10;89.00;;;;;;4823473;29;20061;-72
2021/11/21 04:46:30;;;;;;;8.20;0.82;;;4.20;89.00;;;;;;4821647;29;20050;-72
2021/11/21 04:48:58;;;;;;;9.20;1.05;;;4.20;88.90;;;;;;4823354;29;20069;-72
2021/11/21 04:51:26;;;;;;;13.25;1.35;;;4.10;88.90;;;;;;4823487;29;20149;-72
2021/11/21 04:53:53;;;;;;;9.73;1.30;;;4.00;88.90;;;;;;4822676;29;20055;-72
2021/11/21 04:56:22;;;;;;;8.30;1.15;;;4.00;89.10;;;;;;4822639;29;20077;-72
2021/11/21 04:58:50;;;;;;;6.63;0.93;;;4.00;89.10;;;;;;4823220;29;20516;-73
2021/11/21 05:01:18;;;;;;;12.15;1.58;;;4.00;89.30;;;;;;4823271;29;20051;-73
2021/11/21 05:03:46;;;;;;;14.23;1.52;;;3.90;89.20;;;;;;4807154;29;20053;-73
2021/11/21 05:06:14;;;;;;;8.63;1.25;;;3.90;89.40;;;;;;4822862;29;20054;-71
2021/11/21 05:08:42;;;;;;;12.90;1.45;;;3.90;89.40;;;;;;4806858;29;20343;-71
2021/11/21 05:11:09;;;;;;;16.15;1.60;;;3.90;89.30;;;;;;4823251;29;20062;-71
2021/11/21 05:13:37;;;;;;;11.07;1.38;;;3.90;89.40;;;;;;4823232;29;20102;-71
2021/11/21 05:16:04;;;;;;;12.75;1.80;;;3.90;89.30;;;;;;4822751;29;20075;-71
2021/11/21 05:18:32;;;;;;;11.15;1.33;;;3.80;89.40;;;;;;4820953;29;20058;-71
2021/11/21 05:20:59;;;;;;;11.00;1.15;;;3.80;89.50;;;;;;4815950;29;20066;-72
2021/11/21 05:23:27;;;;;;;11.93;1.52;;;3.70;89.60;;;;;;4823195;29;20042;-72
2021/11/21 05:25:55;;;;;;;8.27;2.25;;;3.80;89.70;;;;;;4838945;29;20424;-72
2021/11/21 05:28:22;;;;;;;12.80;1.15;;;3.70;89.70;;;;;;4841216;29;20050;-72
2021/11/21 05:30:51;;;;;;;10.02;1.20;;;3.70;89.70;;;;;;4841266;29;20050;-72
2021/11/21 05:33:18;;;;;;;17.50;1.20;;;3.70;89.80;;;;;;4822811;29;20055;-72
2021/11/21 05:35:46;;;;;;;6.75;1.20;;;3.70;89.90;;;;;;4823021;29;20051;-71
2021/11/21 05:38:14;;;;;;;9.35;1.15;;;3.70;90.00;;;;;;4823091;29;20138;-72
2021/11/21 05:40:41;;;;;;;14.43;1.55;;;3.70;90.00;;;;;;4806801;29;20073;-72
2021/11/21 05:43:09;;;;;;;8.38;1.40;;;3.60;90.00;;;;;;4822646;29;20050;-72
2021/11/21 05:45:40;;;;;;;7.28;1.00;;;3.60;90.00;;;;;;4822943;29;20061;-72
2021/11/21 05:48:08;;;;;;;12.75;1.33;;;3.60;90.00;;;;;;4822792;29;20050;-72
2021/11/21 05:50:35;;;;;;;8.95;1.23;;;3.50;90.00;;;;;;4824142;29;20058;-72
2021/11/21 05:53:03;;;;;;;12.23;1.40;;;3.50;90.10;;;;;;4843034;29;20066;-72
2021/11/21 05:55:31;;;;;;;14.73;2.15;;;3.50;90.20;;;;;;4843604;29;20088;-72
2021/11/21 05:57:59;;;;;;;13.57;1.48;;;3.40;90.30;;;;;;4844824;29;20401;-72
2021/11/21 06:00:28;;;;;;;9.98;1.40;;;3.40;90.20;;;;;;4844732;29;20053;-72
2021/11/21 06:02:56;;;;;;;13.75;1.60;;;3.30;90.30;;;;;;4827552;29;20098;-72
2021/11/21 06:05:24;;;;;;;11.85;1.30;;;3.30;90.40;;;;;;4826388;29;20489;-73
2021/11/21 06:07:51;;;;;;;12.77;1.77;;;3.20;90.50;;;;;;4826021;29;20059;-73
2021/11/21 06:10:20;;;;;;;12.63;1.25;;;3.10;90.60;;;;;;4826124;29;20050;-73
2021/11/21 06:12:48;;;;;;;12.98;1.63;;;3.00;90.70;;;;;;4825704;29;20062;-73
2021/11/21 06:15:16;;;;;;;15.48;1.65;;;3.00;90.80;;;;;;4824962;29;20059;-73
2021/11/21 06:17:44;;;;;;;15.05;1.48;;;2.90;90.90;;;;;;4825197;29;20065;-73
2021/11/21 06:20:13;;;;;;;14.50;1.90;;;2.90;91.00;;;;;;4825875;29;20517;-73
2021/11/21 06:22:40;;;;;;;12.93;1.73;;;2.90;91.10;;;;;;4825538;29;20051;-73
2021/11/21 06:25:09;;;;;;;12.90;1.20;;;2.80;91.10;;;;;;4825773;29;20071;-73
2021/11/21 06:27:37;;;;;;;10.05;1.17;;;2.80;91.20;;;;;;4824640;29;20049;-73
2021/11/21 06:30:06;;;;;;;13.00;1.30;;;2.80;91.30;;;;;;4822426;29;20069;-73
2021/11/21 06:32:34;;;;;;;14.40;1.48;;;2.70;91.30;;;;;;4821012;29;20430;-73
2021/11/21 06:35:02;;;;;;;9.88;1.52;;;2.80;91.50;;;;;;4825753;29;20073;-73
2021/11/21 06:37:30;;;;;;;15.23;1.40;;;2.70;91.50;;;;;;4824488;29;20054;-73
2021/11/21 06:39:58;;;;;;;11.13;2.08;;;2.70;91.50;;;;;;4824336;29;20457;-73
2021/11/21 06:42:25;;;;;;;9.40;1.45;;;2.70;91.60;;;;;;4825225;29;20054;-73
2021/11/21 06:44:53;;;;;;;14.23;1.63;;;2.70;91.70;;;;;;4825249;29;20477;-73
2021/11/21 06:47:22;;;;;;;15.98;1.45;;;2.70;91.70;;;;;;4825214;29;20058;-73
2021/11/21 06:49:51;;;;;;;14.45;1.63;;;2.70;91.90;;;;;;4825276;29;20077;-73
2021/11/21 06:52:19;;;;;;;12.95;1.45;;;2.70;91.80;;;;;;4824985;29;20046;-73
2021/11/21 06:54:46;;;;;;;13.85;1.33;;;2.70;92.00;;;;;;4825271;29;20055;-73
2021/11/21 06:57:15;;;;;;;20.60;1.92;;;2.70;91.90;;;;;;4825312;29;20055;-73
2021/11/21 06:59:43;;;;;;;9.23;1.30;;;2.70;91.90;;;;;;4825067;29;20046;-74
2021/11/21 07:02:10;;;;;;;14.63;1.70;;;2.70;91.90;;;;;;4824152;29;20061;-74
2021/11/21 07:04:38;;;;;;;17.15;1.95;;;2.70;92.10;;;;;;4839047;29;20061;-72
2021/11/21 07:07:08;;;;;;;12.80;1.70;;;2.70;92.10;;;;;;4825021;29;20057;-72
2021/11/21 07:09:36;;;;;;;13.15;1.67;;;2.70;92.20;;;;;;4839055;29;20038;-71
2021/11/21 07:12:04;;;;;;;16.23;1.80;;;2.80;92.20;;;;;;4823841;29;20505;-72
2021/11/21 07:14:35;;;;;;;12.18;1.70;;;2.80;92.20;;;;;;4825096;29;20043;-71
2021/11/21 07:17:04;;;;;;;19.75;2.78;;;2.80;92.20;;;;;;4808863;29;20046;-71
2021/11/21 07:19:32;;;;;;;14.10;1.98;;;2.90;92.20;;;;;;4824855;29;20053;-72
2021/11/21 07:21:59;;;;;;;18.40;1.92;;;2.90;92.10;;;;;;4825127;29;20478;-72
2021/11/21 07:24:28;;;;;;;15.30;2.00;;;2.90;91.90;;;;;;4822461;29;20055;-72
2021/11/21 07:26:57;;;;;;;16.30;1.85;;;2.90;92.00;;;;;;4823923;29;20053;-72
2021/11/21 07:29:28;;;;;;;10.73;1.45;;;2.90;92.00;;;;;;4824833;29;20054;-72
2021/11/21 07:32:01;;;;;;;12.68;1.85;;;2.90;91.90;;;;;;4824441;29;20042;-72
2021/11/21 07:34:29;;;;;;;14.27;1.70;;;2.90;91.90;;;;;;4808296;29;20062;-73
2021/11/21 07:36:57;;;;;;;8.55;1.40;;;2.80;91.90;;;;;;4824613;29;20050;-72
2021/11/21 07:39:25;;;;;;;12.38;1.77;;;2.80;91.90;;;;;;4824579;29;20105;-72
2021/11/21 07:41:53;;;;;;;13.05;1.20;;;2.80;91.90;;;;;;4821780;29;20393;-73
2021/11/21 07:44:20;;;;;;;14.02;1.80;;;2.80;92.00;;;;;;4814735;29;20050;-72
2021/11/21 07:46:48;;;;;;;10.52;1.27;;;2.80;92.00;;;;;;4824339;29;20054;-72
2021/11/21 07:49:16;;;;;;;19.05;1.92;;;2.80;91.90;;;;;;4824679;29;20054;-71
2021/11/21 07:51:44;;;;;;;10.63;1.30;;;2.80;91.90;;;;;;4821827;29;20054;-72
2021/11/21 07:54:12;;;;;;;12.80;1.55;;;2.80;91.80;;;;;;4821579;29;20050;-72
2021/11/21 07:56:40;;;;;;;7.80;1.90;;;2.80;91.80;;;;;;4807158;29;20057;-72
2021/11/21 07:59:09;;;;;;;13.75;1.60;;;2.80;91.90;;;;;;4807854;29;20054;-72
2021/11/21 08:01:37;;;;;;;13.55;1.73;;;2.80;91.80;;;;;;4824011;29;20046;-72
2021/11/21 08:04:05;;;;;;;8.52;1.27;;;2.70;91.80;;;;;;4823022;29;20050;-72
2021/11/21 08:06:33;;;;;;;8.45;1.55;;;2.70;91.80;;;;;;4824133;29;20046;-72
2021/11/21 08:09:00;;;;;;;7.78;1.40;;;2.80;91.80;;;;;;4824163;29;20046;-72
2021/11/21 08:11:28;;;;;;;12.77;1.77;;;2.70;91.90;;;;;;4836941;29;20058;-72
2021/11/21 08:13:55;;;;;;;8.38;1.50;;;2.70;91.80;;;;;;4823713;29;20050;-72
2021/11/21 08:16:23;;;;;;;9.13;1.40;;;2.80;91.80;;;;;;4823849;29;20050;-72
2021/11/21 08:18:51;;;;;;;6.57;1.40;;;2.70;91.80;;;;;;4824000;29;20050;-73
2021/11/21 08:21:18;;;;;;;10.60;1.35;;;2.70;91.80;;;;;;4823099;29;20496;-73
2021/11/21 08:23:46;;;;;;;12.32;1.70;;;2.70;91.80;;;;;;4822862;29;20062;-72
2021/11/21 08:26:13;;;;;;;8.93;1.70;;;2.70;91.80;;;;;;4822014;29;20062;-73
2021/11/21 08:28:41;;;;;;;8.15;1.60;;;2.70;91.80;;;;;;4824079;29;20065;-72
2021/11/21 08:31:13;;;;;;;14.07;1.95;;;2.60;91.70;;;;;;4822860;29;20061;-72
2021/11/21 08:33:41;;;;;;;9.60;1.58;;;2.60;91.70;;;;;;4823894;29;20054;-72
2021/11/21 08:36:08;;;;;;;11.25;2.15;;;2.60;91.90;;;;;;4823805;29;20531;-73
2021/11/21 08:38:36;;;;;;;11.05;1.38;;;2.60;91.90;;;;;;4823776;29;20062;-73
2021/11/21 08:41:03;;;;;;;4.97;1.33;;;2.60;91.90;;;;;;4818111;29;20073;-72
2021/11/21 08:43:31;;;;;;;8.98;1.90;;;2.50;91.90;;;;;;4823787;29;20046;-73
2021/11/21 08:45:59;;;;;;;11.45;2.15;;;2.50;91.90;;;;;;4823068;29;20054;-72
2021/11/21 08:48:26;;;;;;;7.70;2.08;;;2.60;92.10;;;;;;4822231;29;20074;-72
2021/11/21 08:50:56;;;;;;;6.70;1.50;;;2.60;92.10;;;;;;4820619;29;20523;-73
2021/11/21 08:53:24;;;;;;;11.63;1.90;;;2.70;92.10;;;;;;4806894;29;20054;-73
2021/11/21 08:55:52;;;;;;;9.93;1.95;;;2.70;91.90;;;;;;4823178;29;20088;-73
2021/11/21 08:58:20;;;;;;;7.28;1.52;;;2.70;91.90;;;;;;4823480;29;20051;-73
2021/11/21 09:00:47;;;;;;;6.93;1.60;;;2.70;91.90;;;;;;4822457;29;20061;-72
2021/11/21 09:03:15;;;;;;;10.57;1.70;;;2.80;92.00;;;;;;4823254;29;20053;-72
2021/11/21 09:05:44;;;;;;;9.60;1.40;;;2.80;92.00;;;;;;4817259;29;20057;-72
2021/11/21 09:08:13;;;;;;;9.05;1.40;;;2.90;91.90;;;;;;4807418;29;20046;-72
2021/11/21 09:10:41;;;;;;;13.20;1.52;;;3.00;91.70;;;;;;4815400;29;20050;-73
2021/11/21 09:13:09;;;;;;;9.27;1.33;;;3.10;91.60;;;;;;4821892;29;20058;-72
2021/11/21 09:15:37;;;;;;;7.57;1.40;;;3.20;91.40;;;;;;4823060;29;20057;-72
2021/11/21 09:18:04;;;;;;;9.90;1.70;;;3.20;91.30;;;;;;4821823;29;20046;-72
2021/11/21 09:20:32;;;;;;;9.95;1.70;;;3.30;91.10;;;;;;4823525;29;20050;-72
2021/11/21 09:23:02;;;;;;;6.75;1.40;;;3.30;91.00;;;;;;4822681;29;20066;-72
2021/11/21 09:25:30;;;;;;;9.27;1.63;;;3.30;90.90;;;;;;4823878;29;20051;-72
2021/11/21 09:27:58;;;;;;;8.63;1.27;;;3.40;90.60;;;;;;4821464;29;20046;-72
2021/11/21 09:30:25;;;;;;;6.93;1.48;;;3.50;90.50;;;;;;4824051;29;20446;-72
2021/11/21 09:32:53;;;;;;;7.63;1.40;;;3.50;90.20;;;;;;4809472;29;20662;-71
2021/11/21 09:35:22;;;;;;;2.90;1.02;;;3.60;90.10;;;;;;4821712;29;20058;-71
2021/11/21 09:37:50;;;;;;;8.50;1.33;;;3.60;89.90;;;;;;4826404;29;20054;-71
2021/11/21 09:40:18;;;;;;;11.95;1.63;;;3.70;89.70;;;;;;4824565;29;20447;-72
2021/11/21 09:42:46;;;;;;;8.07;1.45;;;3.70;89.40;;;;;;4840183;29;20054;-72
2021/11/21 09:45:16;;;;;;;9.65;1.73;;;3.80;89.30;;;;;;4825837;29;20049;-72
2021/11/21 09:47:55;;;;;;;7.57;1.70;;;3.80;89.10;;;;;;4839291;29;20062;-72
2021/11/21 09:50:29;;;;;;;8.60;1.60;;;3.80;89.10;;;;;;4839870;29;20054;-73
2021/11/21 09:52:58;;;;;;;10.35;1.80;;;3.80;89.00;;;;;;4826064;29;20054;-72
2021/11/21 09:55:26;;;;;;;11.35;1.73;;;3.80;88.80;;;;;;4823227;29;20061;-72
2021/11/21 09:57:54;;;;;;;4.95;1.20;;;3.90;88.70;;;;;;4825721;29;20123;-72
2021/11/21 10:00:24;;;;;;;11.07;1.95;;;3.90;88.70;;;;;;4822006;29;20482;-72
2021/11/21 10:03:05;;;;;;;5.90;1.17;;;4.00;88.50;;;;;;4817524;29;20130;-72
2021/11/21 10:05:35;;;;;;;7.72;1.30;;;4.10;88.40;;;;;;4821187;29;20046;-72
2021/11/21 10:08:06;;;;;;;7.13;1.30;;;4.10;88.20;;;;;;4824760;29;20050;-72
2021/11/21 10:10:40;;;;;;;7.85;1.42;;;4.20;88.00;;;;;;4815742;29;20042;-73
2021/11/21 10:13:29;;;;;;;11.50;1.60;;;4.30;87.80;;;;;;4813114;29;20055;-73
2021/11/21 10:15:59;;;;;;;5.78;1.13;;;4.30;87.60;;;;;;4837708;29;21834;-73
2021/11/21 10:18:26;;;;;;;4.47;1.27;;;4.40;87.40;;;;;;4821779;29;20062;-72
2021/11/21 10:20:55;;;;;;;6.40;1.30;;;4.50;87.30;;;;;;4828001;29;20054;-73
2021/11/21 10:23:23;;;;;;;9.38;1.35;;;4.50;87.20;;;;;;4825701;29;20061;-73
2021/11/21 10:25:53;;;;;;;6.75;1.63;;;4.60;86.90;;;;;;4810563;29;20053;-72
2021/11/21 10:28:28;;;;;;;6.20;1.60;;;4.70;86.50;;;;;;4824762;29;20057;-73
2021/11/21 10:31:04;;;;;;;2.88;1.33;;;4.80;86.20;;;;;;4824494;29;20046;-72
2021/11/21 10:33:45;;;;;;;8.25;2.03;;;4.90;85.80;;;;;;4823059;29;20063;-72
2021/11/21 10:36:26;;;;;;;7.00;1.63;;;4.90;85.70;;;;;;4822432;29;20551;-72
2021/11/21 10:38:55;;;;;;;3.85;1.33;;;5.00;85.40;;;;;;4824993;29;20498;-72
2021/11/21 10:41:26;;;;;;;7.53;1.40;;;5.10;85.30;;;;;;4817197;29;20050;-72
2021/11/21 10:44:07;;;;;;;5.00;0.98;;;5.30;84.60;;;;;;4824562;29;20065;-72
2021/11/21 10:46:40;;;;;;;3.70;0.82;;;5.30;83.50;;;;;;4798083;29;20058;-72
2021/11/21 10:49:32;;;;;;;5.32;1.15;;;5.40;83.20;;;;;;4826329;29;20046;-73
2021/11/21 10:52:15;;;;;;;3.15;1.00;;;5.50;82.70;;;;;;4824425;29;20058;-73
2021/11/21 10:54:45;;;;;;;5.40;1.23;;;5.60;82.90;;;;;;4825056;29;20066;-73
2021/11/21 10:57:25;;;;;;;4.43;1.10;;;5.70;82.50;;;;;;4825380;29;20050;-74
2021/11/21 10:59:56;;;;;;;7.47;1.27;;;5.80;82.00;;;;;;4824704;29;20061;-73
2021/11/21 11:02:26;;;;;;;3.75;1.10;;;5.80;81.50;;;;;;4818493;29;20054;-73
2021/11/21 11:05:07;;;;;;;4.53;1.50;;;5.90;80.90;;;;;;4823497;29;20038;-74
2021/11/21 11:07:42;;;;;;;3.13;1.10;;;6.00;80.70;;;;;;4824550;29;20061;-73
2021/11/21 11:10:17;;;;;;;3.30;0.90;;;6.00;79.60;;;;;;4838721;29;20073;-73
2021/11/21 11:12:50;;;;;;;4.47;1.23;;;6.10;79.40;;;;;;4824243;29;20050;-73
2021/11/21 11:15:19;;;;;;;4.30;1.00;;;6.10;78.90;;;;;;4823130;29;20042;-73
2021/11/21 11:17:48;;;;;;;4.50;1.30;;;6.20;78.50;;;;;;4812735;29;20417;-73
2021/11/21 11:20:19;;;;;;;3.25;1.40;;;6.20;78.10;;;;;;4805129;29;20065;-72
2021/11/21 11:22:47;;;;;;;2.88;1.23;;;6.30;78.40;;;;;;4806586;29;20059;-73
2021/11/21 11:25:36;;;;;;;8.13;1.30;;;6.50;78.50;;;;;;4814398;29;20058;-73
2021/11/21 11:28:17;;;;;;;4.38;1.15;;;6.70;77.40;;;;;;4826584;29;20054;-72
2021/11/21 11:30:47;;;;;;;3.45;1.17;;;7.00;76.60;;;;;;4823980;29;20060;-72
2021/11/21 11:33:18;;;;;;;4.65;1.35;;;7.30;75.20;;;;;;4836762;29;20051;-72
2021/11/21 11:35:53;;;;;;;2.05;1.23;;;7.70;73.80;;;;;;4822684;29;20047;-72
2021/11/21 11:38:26;;;;;;;3.05;1.13;;;8.00;74.20;;;;;;4819402;29;20554;-73
2021/11/21 11:40:56;;;;;;;;;;;8.30;72.40;;;;;;4820339;29;20055;-72
2021/11/21 11:43:31;;;;;;;3.55;1.05;;;8.60;72.40;;;;;;4824362;29;19944;-73
2021/11/21 11:46:19;;;;;;;2.35;1.00;;;8.90;72.00;;;;;;4823851;29;20046;-73
2021/11/21 11:48:58;;;;;;;2.08;1.05;;;9.30;70.30;;;;;;4805590;29;20047;-73
2021/11/21 11:51:33;;;;;;;2.25;1.20;;;9.50;68.20;;;;;;4805019;29;20490;-74
2021/11/21 11:54:21;;;;;;;5.60;0.95;;;9.80;67.40;;;;;;4818039;29;20050;-73
2021/11/21 11:56:55;;;;;;;3.55;1.35;;;10.00;67.30;;;;;;4827440;29;20061;-73
2021/11/21 11:59:25;;;;;;;3.47;1.45;;;10.20;66.00;;;;;;4824144;29;20067;-73
2021/11/21 12:01:55;;;;;;;7.25;1.23;;;9.90;64.80;;;;;;4824077;29;20063;-73
2021/11/21 12:04:23;;;;;;;4.93;1.20;;;9.80;64.20;;;;;;4824013;29;20042;-74
2021/11/21 12:06:56;;;;;;;3.25;1.13;;;9.90;64.50;;;;;;4823632;29;20051;-73
2021/11/21 12:09:47;;;;;;;;;;;10.10;64.10;;;;;;4823132;29;20489;-73
2021/11/21 12:12:17;;;;;;;2.92;0.80;;;10.20;63.50;;;;;;4823914;29;19929;-73
2021/11/21 12:14:48;;;;;;;2.13;1.10;;;10.20;62.90;;;;;;4824358;29;20065;-73
2021/11/21 12:17:23;;;;;;;4.65;1.10;;;10.40;63.10;;;;;;4825472;29;20055;-74
2021/11/21 12:19:54;;;;;;;2.45;0.77;;;10.70;61.00;;;;;;4822550;29;20050;-72
2021/11/21 12:22:28;;;;;;;4.28;1.08;;;10.80;60.80;;;;;;4822462;29;20054;-73
2021/11/21 12:25:01;;;;;;;1.73;0.80;;;11.20;60.10;;;;;;4821526;29;20054;-73
2021/11/21 12:27:40;;;;;;;4.50;1.10;;;11.50;58.40;;;;;;4806529;29;20065;-72
2021/11/21 12:30:13;;;;;;;4.95;1.48;;;11.50;58.20;;;;;;4823648;29;20049;-72
2021/11/21 12:33:10;;;;;;;1.88;0.88;;;11.30;58.80;;;;;;4833043;29;20054;-74
2021/11/21 12:35:48;;;;;;;2.38;0.85;;;11.30;58.40;;;;;;4791502;29;20448;-72
2021/11/21 12:38:21;;;;;;;2.83;0.75;;;11.60;57.50;;;;;;4819903;29;20073;-73
2021/11/21 12:40:54;;;;;;;2.85;0.70;;;11.90;54.20;;;;;;4804972;29;20405;-72
2021/11/21 12:43:24;;;;;;;2.00;0.70;;;11.80;54.10;;;;;;4819125;29;20061;-72
2021/11/21 12:45:59;;;;;;;1.45;0.40;;;12.00;53.10;;;;;;4821880;29;20141;-72
2021/11/21 12:48:29;;;;;;;2.65;0.88;;;12.10;53.90;;;;;;4836033;29;20054;-72
2021/11/21 12:51:02;;;;;;;2.08;0.80;;;12.20;52.10;;;;;;4815016;29;20043;-73
2021/11/21 12:53:31;;;;;;;4.50;0.85;;;12.20;50.60;;;;;;4822007;29;20409;-72
2021/11/21 12:56:06;;;;;;;2.65;1.38;;;12.20;51.20;;;;;;4832746;29;20047;-71
2021/11/21 12:58:41;;;;;;;3.53;1.10;;;12.20;51.30;;;;;;4821895;29;20057;-72
2021/11/21 13:01:17;;;;;;;2.75;1.23;;;11.80;50.50;;;;;;4821155;29;20046;-72
2021/11/21 13:03:45;;;;;;;3.22;1.60;;;11.70;51.30;;;;;;4823796;29;20400;-71
2021/11/21 13:06:15;;;;;;;5.22;1.23;;;11.50;52.10;;;;;;4836441;29;20050;-72